LPPD/PDL METAR and TAF weather

Enter ICAO airport designator
Station Type Date Time Source
LPPD METAR 2021/04/17 02:00 UTC NOAA

LPPD 170200Z 15006KT 8000 -DZ SCT006 BKN012 16/16 Q1022


Station Type Date Time Source
LPPD Decoded METAR 2021/04/17 02:00 UTC NOAA

Ponta Delgada / Nordela Acores , Portugal (LPPD) 37-44N 025-42W 72M
Apr 16, 2021 - 10:00 PM EDT / 2021.04.17 0200 UTC
Wind: from the SSE (150 degrees) at 7 MPH (6 KT):0
Visibility: 4 mile(s):0
Sky conditions: mostly cloudy
Weather: light drizzle
Temperature: 60 F (16 C)
Dew Point: 60 F (16 C)
Relative Humidity: 100%
Pressure (altimeter): 30.18 in. Hg (1022 hPa)
ob: LPPD 170200Z 15006KT 8000 -DZ SCT006 BKN012 16/16 Q1022
cycle: 2

Station Type Date Time Source
LPPD TAF 2021/04/16 18:18 UTC NOAA

TAF LPPD 161700Z 1618/1718 20010KT 9999 SCT015
TEMPO 1618/1624 FEW012 BKN035
BECMG 1702/1704 20015KT SCT006 BKN012 PROB40
TEMPO 1702/1718 3000 DZRA BR SCT002 BKN004

Example: see airport list